Time;durP1;ratioP1;P1;durP2;ratioP2;P2;SDS_P1;SDS_P2;PMS_P1;PMS_P2;Temp;Humidity;BMP_temperature;BMP_pressure;BME280_temperature;BME280_humidity;BME280_pressure;Samples;Min_cycle;Max_cycle;Signal;HPM_P1;HPM_P2
2020/12/18 00:03:03;;;;;;;16.40;11.43;;;7.60;99.90;;;;;;7036052;27;20413;-67
2020/12/18 00:06:30;;;;;;;17.33;10.85;;;7.60;99.90;;;;;;7070598;27;20548;-66
2020/12/18 00:09:52;;;;;;;17.73;10.65;;;7.50;99.90;;;;;;7034429;27;20397;-66
2020/12/18 00:13:13;;;;;;;18.52;11.45;;;7.40;99.90;;;;;;7029160;27;20803;-67
2020/12/18 00:16:34;;;;;;;17.07;11.17;;;7.40;99.90;;;;;;7039624;27;20893;-67
2020/12/18 00:19:54;;;;;;;15.75;11.40;;;7.40;99.90;;;;;;7095985;27;20775;-67
2020/12/18 00:23:15;;;;;;;17.23;11.70;;;7.20;99.90;;;;;;7061766;27;21223;-66
2020/12/18 00:26:36;;;;;;;18.05;11.15;;;7.20;99.90;;;;;;7036427;27;20459;-67
2020/12/18 00:29:57;;;;;;;17.92;11.10;;;7.10;99.90;;;;;;7071904;27;20391;-67
2020/12/18 00:33:18;;;;;;;18.10;11.80;;;7.10;99.90;;;;;;7025614;27;20401;-67
2020/12/18 00:36:40;;;;;;;17.15;11.40;;;7.00;99.90;;;;;;7036862;28;20485;-67
2020/12/18 00:40:02;;;;;;;17.90;10.90;;;6.90;99.90;;;;;;7032719;27;20412;-67
2020/12/18 00:43:23;;;;;;;17.65;11.50;;;6.90;99.90;;;;;;7034522;27;20389;-67
2020/12/18 00:46:44;;;;;;;17.27;11.60;;;6.90;99.90;;;;;;7026426;27;20416;-67
2020/12/18 00:50:05;;;;;;;19.20;11.73;;;6.80;99.90;;;;;;7041501;27;20435;-66
2020/12/18 00:53:26;;;;;;;19.88;11.90;;;6.70;99.90;;;;;;7034735;27;20395;-67
2020/12/18 00:56:47;;;;;;;18.98;12.25;;;6.60;99.90;;;;;;7036086;27;20396;-67
2020/12/18 01:00:08;;;;;;;20.23;12.05;;;6.70;99.90;;;;;;7074273;27;20395;-67
2020/12/18 01:03:52;;;;;;;18.52;11.77;;;6.50;99.90;;;;;;7046810;27;20486;-67
2020/12/18 01:07:14;;;;;;;19.27;11.95;;;6.50;99.90;;;;;;7033785;27;20423;-66
2020/12/18 01:10:35;;;;;;;17.45;11.43;;;6.40;99.90;;;;;;7041357;27;20402;-66
2020/12/18 01:13:56;;;;;;;16.83;11.55;;;6.30;99.90;;;;;;7033725;27;20396;-67
2020/12/18 01:17:17;;;;;;;17.55;11.18;;;6.30;99.90;;;;;;7034928;27;20410;-67
2020/12/18 01:20:38;;;;;;;16.50;10.20;;;6.10;99.90;;;;;;7042466;27;20404;-67
2020/12/18 01:23:59;;;;;;;17.70;11.27;;;6.00;99.90;;;;;;7051117;27;20440;-66
2020/12/18 01:27:20;;;;;;;18.65;12.07;;;6.00;99.90;;;;;;7038865;27;20409;-67
2020/12/18 01:30:41;;;;;;;19.30;11.80;;;6.10;99.90;;;;;;7048360;27;20398;-67
2020/12/18 01:34:02;;;;;;;19.40;11.90;;;6.00;99.90;;;;;;7039928;27;20401;-66
2020/12/18 01:37:24;;;;;;;20.30;12.80;;;6.00;99.90;;;;;;7037178;27;20410;-66
2020/12/18 01:40:49;;;;;;;21.10;12.25;;;6.00;99.90;;;;;;7040448;27;20409;-67
2020/12/18 01:44:11;;;;;;;22.05;13.10;;;6.20;99.90;;;;;;7046109;27;20712;-66
2020/12/18 01:47:35;;;;;;;17.83;12.60;;;6.20;99.90;;;;;;7040395;27;20901;-67
2020/12/18 01:50:59;;;;;;;19.90;12.93;;;6.40;99.90;;;;;;7035022;27;20454;-67
2020/12/18 01:54:24;;;;;;;18.73;12.13;;;6.50;99.90;;;;;;7049288;27;20476;-67
2020/12/18 01:57:45;;;;;;;20.52;12.43;;;6.40;99.90;;;;;;7041174;27;20433;-66
2020/12/18 02:01:09;;;;;;;16.30;12.00;;;6.70;99.90;;;;;;7031604;27;20467;-66
2020/12/18 02:04:43;;;;;;;19.30;12.25;;;6.80;99.90;;;;;;7061603;27;20918;-66
2020/12/18 02:08:05;;;;;;;19.33;12.95;;;6.90;99.90;;;;;;7041191;27;20775;-66
2020/12/18 02:11:44;;;;;;;19.05;11.88;;;6.80;99.90;;;;;;7047198;27;20401;-66
2020/12/18 02:15:10;;;;;;;20.73;12.20;;;6.90;99.90;;;;;;7030756;27;20413;-66
2020/12/18 02:18:55;;;;;;;17.75;11.90;;;6.90;99.90;;;;;;7075434;27;20451;-67
2020/12/18 02:22:19;;;;;;;20.00;12.93;;;7.10;99.90;;;;;;7043967;27;20795;-67
2020/12/18 02:26:05;;;;;;;18.35;12.52;;;7.10;99.90;;;;;;7038923;27;20414;-67
2020/12/18 02:29:27;;;;;;;19.48;12.60;;;7.20;99.90;;;;;;7059222;27;20481;-67
2020/12/18 02:33:07;;;;;;;17.83;12.02;;;7.30;99.90;;;;;;7048625;27;20553;-67
2020/12/18 02:36:33;;;;;;;17.05;12.48;;;7.20;99.90;;;;;;7034328;27;20398;-67
2020/12/18 02:40:00;;;;;;;21.02;12.52;;;7.30;99.90;;;;;;7053430;27;20397;-67
2020/12/18 02:43:40;;;;;;;16.67;11.50;;;7.20;99.90;;;;;;7057535;27;20404;-67
2020/12/18 02:47:04;;;;;;;19.05;14.18;;;7.10;99.90;;;;;;7040165;27;20405;-66
2020/12/18 02:50:25;;;;;;;17.35;12.60;;;7.20;99.90;;;;;;7047339;27;20381;-66
2020/12/18 02:53:50;;;;;;;17.40;12.50;;;7.30;99.90;;;;;;7036287;27;20757;-66
2020/12/18 02:57:25;;;;;;;18.13;13.20;;;7.20;99.90;;;;;;7046503;27;20393;-67
2020/12/18 03:00:54;;;;;;;17.98;12.90;;;7.10;99.90;;;;;;7021034;27;20395;-67
2020/12/18 03:04:18;;;;;;;19.73;12.80;;;7.00;99.90;;;;;;7024957;27;20412;-66
2020/12/18 03:07:58;;;;;;;19.07;12.90;;;7.10;99.90;;;;;;7048601;27;20395;-67
2020/12/18 03:11:19;;;;;;;17.95;12.93;;;7.10;99.90;;;;;;7066070;27;20843;-68
2020/12/18 03:14:40;;;;;;;19.38;12.90;;;7.10;99.90;;;;;;7038151;27;20412;-67
2020/12/18 03:18:16;;;;;;;18.80;13.00;;;7.10;99.90;;;;;;7032609;27;20796;-67
2020/12/18 03:21:37;;;;;;;17.70;12.85;;;7.10;99.90;;;;;;7041096;27;20461;-66
2020/12/18 03:25:17;;;;;;;18.42;12.95;;;7.10;99.90;;;;;;7063460;27;20399;-67
2020/12/18 03:28:58;;;;;;;19.95;13.40;;;7.00;99.90;;;;;;7034149;27;20497;-67
2020/12/18 03:32:20;;;;;;;19.90;12.70;;;7.10;99.90;;;;;;7035634;27;20563;-67
2020/12/18 03:35:53;;;;;;;18.70;12.80;;;7.00;99.90;;;;;;7039406;27;20403;-68
2020/12/18 03:39:14;;;;;;;16.95;12.13;;;7.10;99.90;;;;;;7032631;27;20399;-66
2020/12/18 03:42:53;;;;;;;17.40;12.13;;;7.10;99.90;;;;;;7029937;27;20416;-67
2020/12/18 03:46:18;;;;;;;19.00;12.32;;;7.00;99.90;;;;;;7029431;27;20429;-66
2020/12/18 03:49:45;;;;;;;19.20;12.40;;;7.00;99.90;;;;;;7042708;27;20857;-66
2020/12/18 03:53:07;;;;;;;18.35;12.60;;;7.10;99.90;;;;;;7045508;27;20462;-66
2020/12/18 03:56:30;;;;;;;17.42;12.57;;;7.20;99.90;;;;;;7038628;27;20405;-67
2020/12/18 04:00:17;;;;;;;18.55;12.15;;;7.30;99.90;;;;;;7056563;27;20383;-67
2020/12/18 04:03:46;;;;;;;18.52;12.45;;;7.10;99.90;;;;;;7030468;27;20485;-67
2020/12/18 04:07:11;;;;;;;16.63;11.80;;;7.20;99.90;;;;;;7042222;27;20470;-66
2020/12/18 04:10:34;;;;;;;19.27;11.90;;;7.20;99.90;;;;;;7054534;27;20521;-66
2020/12/18 04:14:14;;;;;;;19.47;12.17;;;7.30;99.90;;;;;;7055199;27;20449;-67
2020/12/18 04:17:45;;;;;;;17.58;12.30;;;7.20;99.90;;;;;;7025276;27;20442;-67
2020/12/18 04:21:08;;;;;;;19.13;12.48;;;7.30;99.90;;;;;;7044171;27;20495;-67
2020/12/18 04:24:38;;;;;;;16.60;11.93;;;7.20;99.90;;;;;;7028454;27;20412;-66
2020/12/18 04:28:01;;;;;;;19.03;12.40;;;7.30;99.90;;;;;;7045426;27;20902;-66
2020/12/18 04:31:22;;;;;;;19.40;12.80;;;7.30;99.90;;;;;;7018185;27;20396;-66
2020/12/18 04:34:43;;;;;;;18.83;12.30;;;7.30;99.90;;;;;;7028996;27;20890;-68
2020/12/18 04:38:22;;;;;;;18.80;12.47;;;7.40;99.90;;;;;;7058501;27;20479;-67
2020/12/18 04:42:09;;;;;;;17.45;12.70;;;7.40;99.90;;;;;;7056232;27;20388;-67
2020/12/18 04:45:31;;;;;;;18.93;12.17;;;7.40;99.90;;;;;;7038078;27;20762;-66
2020/12/18 04:48:58;;;;;;;16.05;11.88;;;7.20;99.90;;;;;;7045223;27;20547;-66
2020/12/18 04:52:29;;;;;;;19.30;12.10;;;7.10;99.90;;;;;;7031512;27;20485;-66
2020/12/18 04:55:53;;;;;;;18.15;11.80;;;7.10;99.90;;;;;;7052344;27;20896;-66
2020/12/18 04:59:22;;;;;;;16.52;11.70;;;7.00;99.90;;;;;;7042138;27;20746;-66
2020/12/18 05:02:51;;;;;;;20.20;11.85;;;7.10;99.90;;;;;;7019656;27;21001;-66
2020/12/18 05:06:12;;;;;;;16.98;11.75;;;7.10;99.90;;;;;;7045173;27;20780;-65
2020/12/18 05:09:34;;;;;;;17.67;11.60;;;7.10;99.90;;;;;;7041122;27;20384;-66
2020/12/18 05:12:55;;;;;;;16.67;11.30;;;6.90;99.90;;;;;;7040067;27;20788;-66
2020/12/18 05:16:26;;;;;;;15.93;10.98;;;6.90;99.90;;;;;;7027509;27;20460;-65
2020/12/18 05:19:58;;;;;;;16.23;10.97;;;7.00;99.90;;;;;;7051103;27;20376;-65
2020/12/18 05:23:46;;;;;;;16.02;10.85;;;7.00;99.90;;;;;;7056798;27;20398;-66
2020/12/18 05:27:18;;;;;;;17.00;11.20;;;7.00;99.90;;;;;;7041849;27;20419;-67
2020/12/18 05:30:39;;;;;;;17.80;10.98;;;7.00;99.90;;;;;;7039029;27;20407;-67
2020/12/18 05:34:35;;;;;;;17.95;11.60;;;7.10;99.90;;;;;;6980320;27;20404;-67
2020/12/18 05:38:04;;;;;;;16.65;10.35;;;7.00;99.90;;;;;;7035325;27;20391;-65
2020/12/18 05:41:54;;;;;;;16.20;10.60;;;7.00;99.90;;;;;;7049613;27;20491;-66
2020/12/18 05:45:19;;;;;;;15.68;10.80;;;7.00;99.90;;;;;;7037221;27;20403;-67
2020/12/18 05:48:55;;;;;;;15.23;10.40;;;7.00;99.90;;;;;;7044052;27;20809;-65
2020/12/18 05:52:20;;;;;;;16.27;10.20;;;7.00;99.90;;;;;;7034278;27;20477;-65
2020/12/18 05:55:49;;;;;;;16.48;10.65;;;7.00;99.90;;;;;;7044533;27;20396;-66
2020/12/18 05:59:29;;;;;;;15.45;10.02;;;6.90;99.90;;;;;;7043016;27;20903;-66
2020/12/18 06:03:01;;;;;;;14.35;9.65;;;6.90;99.90;;;;;;7042451;27;20796;-66
2020/12/18 06:06:39;;;;;;;15.40;9.90;;;6.90;99.90;;;;;;7023244;27;20826;-65
2020/12/18 06:10:02;;;;;;;15.23;10.05;;;6.90;99.90;;;;;;7041019;27;20386;-65
2020/12/18 06:13:42;;;;;;;15.63;9.32;;;6.80;99.90;;;;;;7034635;27;20404;-66
2020/12/18 06:17:27;;;;;;;13.95;9.40;;;6.70;99.90;;;;;;7033329;27;20555;-65
2020/12/18 06:20:53;;;;;;;13.63;9.18;;;6.80;99.90;;;;;;7025001;27;20438;-65
2020/12/18 06:24:15;;;;;;;15.35;10.20;;;6.70;99.90;;;;;;7040954;27;20450;-66
2020/12/18 06:28:00;;;;;;;14.17;9.90;;;6.90;99.90;;;;;;7032038;27;20474;-65
2020/12/18 06:31:32;;;;;;;16.70;10.63;;;6.90;99.90;;;;;;7028895;27;20405;-65
2020/12/18 06:35:36;;;;;;;17.33;10.20;;;6.90;99.90;;;;;;7052989;27;20754;-67
2020/12/18 06:39:33;;;;;;;16.10;10.10;;;6.90;99.90;;;;;;7059782;27;20391;-66
2020/12/18 06:43:46;;;;;;;15.80;10.03;;;6.70;99.90;;;;;;7044949;27;20426;-66
2020/12/18 06:47:41;;;;;;;14.30;9.60;;;6.70;99.90;;;;;;7046310;27;20509;-66
2020/12/18 06:51:46;;;;;;;15.55;10.70;;;6.60;99.90;;;;;;6994381;27;20453;-66
2020/12/18 06:55:29;;;;;;;14.43;9.43;;;6.60;99.90;;;;;;7045000;27;20394;-66
2020/12/18 06:59:19;;;;;;;14.18;9.40;;;6.50;99.90;;;;;;7044644;27;20751;-67
2020/12/18 07:02:39;;;;;;;15.30;10.10;;;6.40;99.90;;;;;;7026243;27;20405;-66
2020/12/18 07:06:02;;;;;;;17.13;10.15;;;6.30;99.90;;;;;;7037018;27;20490;-67
2020/12/18 07:09:25;;;;;;;17.00;10.10;;;6.20;99.90;;;;;;7049597;27;20398;-66
2020/12/18 07:12:50;;;;;;;16.60;9.90;;;6.20;99.90;;;;;;7044361;27;20392;-66
2020/12/18 07:16:11;;;;;;;16.73;9.88;;;6.00;99.90;;;;;;7045588;27;20471;-66
2020/12/18 07:19:32;;;;;;;15.88;9.80;;;6.10;99.90;;;;;;7050375;27;20809;-66
2020/12/18 07:23:05;;;;;;;14.88;9.38;;;6.10;99.90;;;;;;7027278;27;20402;-67
2020/12/18 07:26:26;;;;;;;13.63;9.33;;;6.10;99.90;;;;;;7051335;27;20514;-67
2020/12/18 07:29:47;;;;;;;14.90;9.45;;;6.10;99.90;;;;;;7047805;27;20957;-67
2020/12/18 07:33:10;;;;;;;15.23;9.27;;;6.10;99.90;;;;;;7064890;27;20409;-67
2020/12/18 07:36:31;;;;;;;16.27;9.40;;;6.10;99.90;;;;;;7034628;27;20406;-66
2020/12/18 07:39:58;;;;;;;14.40;9.40;;;6.10;99.90;;;;;;7039470;27;20409;-66
2020/12/18 07:43:22;;;;;;;16.20;9.73;;;6.00;99.90;;;;;;7067216;27;20402;-66
2020/12/18 07:46:43;;;;;;;15.90;9.50;;;5.90;99.90;;;;;;7025964;27;20403;-66
2020/12/18 07:50:08;;;;;;;15.90;9.70;;;6.00;99.90;;;;;;7026915;27;21368;-66
2020/12/18 07:53:31;;;;;;;14.20;9.60;;;6.00;99.90;;;;;;7049758;27;20403;-67
2020/12/18 07:56:52;;;;;;;16.38;9.10;;;6.00;99.90;;;;;;7042573;27;20405;-67
2020/12/18 08:00:13;;;;;;;16.45;9.48;;;6.00;99.90;;;;;;7051741;27;20762;-65
2020/12/18 08:03:36;;;;;;;16.17;9.82;;;6.00;99.90;;;;;;7048570;27;20402;-66
2020/12/18 08:06:59;;;;;;;17.13;10.23;;;6.00;99.90;;;;;;7030377;27;20874;-66
2020/12/18 08:10:20;;;;;;;14.45;9.68;;;5.80;99.90;;;;;;7032116;27;20398;-67
2020/12/18 08:13:41;;;;;;;15.33;9.27;;;5.80;99.90;;;;;;7067573;27;20446;-67
2020/12/18 08:17:02;;;;;;;15.38;9.00;;;5.80;99.90;;;;;;7034971;27;20452;-66
2020/12/18 08:20:25;;;;;;;15.50;9.10;;;5.90;99.90;;;;;;7034224;27;20418;-67
2020/12/18 08:23:50;;;;;;;13.10;9.00;;;5.90;99.90;;;;;;7027904;27;20398;-66
2020/12/18 08:27:22;;;;;;;14.13;8.80;;;5.90;99.90;;;;;;7035143;27;20906;-67
2020/12/18 08:30:45;;;;;;;13.60;8.60;;;6.00;99.90;;;;;;7026217;27;20406;-66
2020/12/18 08:34:10;;;;;;;12.60;8.70;;;6.10;99.90;;;;;;7041318;27;20412;-65
2020/12/18 08:37:30;;;;;;;12.93;8.80;;;6.20;99.90;;;;;;7043554;27;20402;-66
2020/12/18 08:40:56;;;;;;;12.93;8.40;;;6.40;99.90;;;;;;7034107;27;20388;-66
2020/12/18 08:44:19;;;;;;;14.40;8.25;;;6.50;99.90;;;;;;7033324;27;20394;-65
2020/12/18 08:47:42;;;;;;;14.10;8.20;;;6.60;99.90;;;;;;7042317;27;20417;-66
2020/12/18 08:51:03;;;;;;;10.57;7.40;;;6.70;99.90;;;;;;7026264;28;20403;-66
2020/12/18 08:54:31;;;;;;;11.20;7.28;;;6.80;99.90;;;;;;7055259;27;20482;-67
2020/12/18 08:57:53;;;;;;;12.55;7.45;;;6.90;99.90;;;;;;7037014;27;20405;-66
2020/12/18 09:01:22;;;;;;;10.23;7.30;;;7.10;99.90;;;;;;7027339;28;20394;-66
2020/12/18 09:04:43;;;;;;;11.67;7.23;;;7.20;99.90;;;;;;7037134;27;20416;-66
2020/12/18 09:08:22;;;;;;;9.02;6.57;;;7.30;99.90;;;;;;7039607;27;20438;-66
2020/12/18 09:11:45;;;;;;;10.90;6.65;;;7.20;99.90;;;;;;7041633;28;20394;-65
2020/12/18 09:15:23;;;;;;;10.15;6.40;;;7.30;99.90;;;;;;7034910;27;20494;-65
2020/12/18 09:18:51;;;;;;;10.00;6.60;;;7.60;99.90;;;;;;7034632;27;20397;-66
2020/12/18 09:22:15;;;;;;;9.52;6.63;;;7.90;99.90;;;;;;7033278;27;20398;-65
2020/12/18 09:25:41;;;;;;;11.00;6.90;;;8.10;99.90;;;;;;7032727;28;20417;-66
2020/12/18 09:29:02;;;;;;;9.70;6.90;;;8.40;99.90;;;;;;7032145;27;20796;-67
2020/12/18 09:32:22;;;;;;;8.75;6.00;;;8.70;99.90;;;;;;7048316;27;20414;-67
2020/12/18 09:35:44;;;;;;;8.90;6.40;;;8.90;99.90;;;;;;7048180;27;20405;-65
2020/12/18 09:39:04;;;;;;;9.57;6.40;;;8.90;99.90;;;;;;7041822;27;20415;-65
2020/12/18 09:42:25;;;;;;;8.23;5.70;;;9.00;99.90;;;;;;7055399;27;20425;-66
2020/12/18 09:45:47;;;;;;;9.30;5.70;;;9.60;99.90;;;;;;7030737;27;20403;-66
2020/12/18 09:49:08;;;;;;;8.10;5.83;;;9.60;99.90;;;;;;7058381;27;20434;-67
2020/12/18 09:52:29;;;;;;;9.45;5.95;;;10.10;99.90;;;;;;7041869;27;20399;-66
2020/12/18 09:55:50;;;;;;;10.00;5.80;;;10.40;99.90;;;;;;7059666;27;20400;-67
2020/12/18 09:59:12;;;;;;;8.13;5.80;;;10.80;99.90;;;;;;7033611;27;20399;-66
2020/12/18 10:02:33;;;;;;;7.63;5.50;;;10.30;99.90;;;;;;7044364;27;20405;-68
2020/12/18 10:05:54;;;;;;;10.93;5.75;;;10.60;99.90;;;;;;7059355;27;20408;-67
2020/12/18 10:09:15;;;;;;;7.88;5.30;;;11.00;99.90;;;;;;7050089;27;20395;-65
2020/12/18 10:12:36;;;;;;;9.43;5.40;;;11.70;99.90;;;;;;7038761;27;20395;-65
2020/12/18 10:15:57;;;;;;;8.80;5.30;;;12.30;99.90;;;;;;7049550;27;20402;-67
2020/12/18 10:19:17;;;;;;;8.00;4.60;;;12.80;99.90;;;;;;7054985;27;20399;-65
2020/12/18 10:22:38;;;;;;;8.45;5.20;;;12.40;99.90;;;;;;7034181;27;20408;-66
2020/12/18 10:25:59;;;;;;;7.10;5.00;;;12.40;99.90;;;;;;7075405;27;20795;-66
2020/12/18 10:29:20;;;;;;;9.20;5.28;;;11.60;99.90;;;;;;7047692;27;20440;-66
2020/12/18 10:32:42;;;;;;;8.70;5.20;;;11.80;99.90;;;;;;7044626;27;20391;-68
2020/12/18 10:36:03;;;;;;;8.07;5.10;;;11.60;99.90;;;;;;7036104;27;20402;-66
2020/12/18 10:39:24;;;;;;;7.35;4.70;;;11.70;99.90;;;;;;7030700;27;20405;-66
2020/12/18 10:42:45;;;;;;;9.02;5.00;;;12.40;99.90;;;;;;7046115;27;20466;-67
2020/12/18 10:46:06;;;;;;;7.33;5.10;;;12.70;99.90;;;;;;7027286;27;20949;-66
2020/12/18 10:49:27;;;;;;;9.15;5.10;;;13.80;99.90;;;;;;7031966;27;20398;-66
2020/12/18 10:52:48;;;;;;;8.50;5.00;;;14.40;99.90;;;;;;7052704;27;20427;-67
2020/12/18 10:56:09;;;;;;;7.70;5.30;;;16.00;99.90;;;;;;7034720;27;20401;-66
2020/12/18 10:59:31;;;;;;;5.80;4.97;;;16.30;99.90;;;;;;7030750;27;20410;-66
2020/12/18 11:02:52;;;;;;;8.00;4.80;;;17.50;99.90;;;;;;7053658;27;20410;-67
2020/12/18 11:06:12;;;;;;;6.47;4.67;;;18.50;99.90;;;;;;7062032;27;20431;-67
2020/12/18 11:09:35;;;;;;;7.22;4.70;;;16.50;99.90;;;;;;7041936;27;20422;-66
2020/12/18 11:12:56;;;;;;;7.18;5.00;;;16.80;99.90;;;;;;7032045;27;20390;-66
2020/12/18 11:16:18;;;;;;;6.82;5.00;;;15.70;99.90;;;;;;7035722;27;20407;-66
2020/12/18 11:19:39;;;;;;;6.72;4.90;;;15.80;99.90;;;;;;7039194;27;20406;-67
2020/12/18 11:22:59;;;;;;;6.65;4.78;;;16.90;99.90;;;;;;7039175;27;20394;-66
2020/12/18 11:26:20;;;;;;;6.70;4.63;;;17.00;99.90;;;;;;7043687;27;20407;-67
2020/12/18 11:29:41;;;;;;;6.27;4.80;;;16.90;99.90;;;;;;7035411;27;20393;-66
2020/12/18 11:33:02;;;;;;;6.53;4.50;;;15.80;99.90;;;;;;7029629;27;20399;-66
2020/12/18 11:36:23;;;;;;;7.03;4.50;;;16.00;99.90;;;;;;7042977;27;20394;-67
2020/12/18 11:39:44;;;;;;;6.97;4.57;;;15.40;99.90;;;;;;7036114;27;20417;-67
2020/12/18 11:43:05;;;;;;;8.43;4.43;;;16.70;99.90;;;;;;7039428;27;20397;-67
2020/12/18 11:46:26;;;;;;;8.60;4.55;;;16.40;99.90;;;;;;7030473;27;20406;-67
2020/12/18 11:49:46;;;;;;;7.30;4.43;;;15.30;99.90;;;;;;7027797;27;20396;-65
2020/12/18 11:53:10;;;;;;;6.15;4.60;;;14.60;99.90;;;;;;7021929;27;20396;-67
2020/12/18 11:56:31;;;;;;;7.87;4.87;;;14.30;99.90;;;;;;7040698;27;20442;-66
2020/12/18 11:59:52;;;;;;;6.93;4.40;;;13.70;99.90;;;;;;7040891;27;20925;-66
2020/12/18 12:03:13;;;;;;;6.20;4.50;;;13.90;99.90;;;;;;7044373;27;20414;-67
2020/12/18 12:06:34;;;;;;;6.40;4.60;;;13.20;99.90;;;;;;7043451;27;20396;-66
2020/12/18 12:09:54;;;;;;;5.40;4.30;;;13.20;99.90;;;;;;7054910;27;20774;-67
2020/12/18 12:13:15;;;;;;;9.10;4.60;;;13.10;99.90;;;;;;7038529;27;20404;-66
2020/12/18 12:16:37;;;;;;;6.13;4.30;;;13.60;99.90;;;;;;7053898;27;20954;-67
2020/12/18 12:19:58;;;;;;;6.50;4.70;;;15.90;99.90;;;;;;7056733;27;20389;-67
2020/12/18 12:23:19;;;;;;;6.35;4.20;;;16.00;99.90;;;;;;7031546;27;20402;-67
2020/12/18 12:26:40;;;;;;;6.60;4.10;;;15.90;99.90;;;;;;7035102;27;20417;-67
2020/12/18 12:30:02;;;;;;;6.68;4.10;;;16.90;99.90;;;;;;7043220;27;20435;-67
2020/12/18 12:33:24;;;;;;;6.10;4.37;;;17.50;99.90;;;;;;7050312;27;20967;-67
2020/12/18 12:36:44;;;;;;;7.32;4.50;;;16.70;99.90;;;;;;7028688;27;20395;-66
2020/12/18 12:40:06;;;;;;;6.22;4.40;;;17.10;99.90;;;;;;7029315;27;20414;-66
2020/12/18 12:43:27;;;;;;;6.20;4.43;;;17.70;99.90;;;;;;7030101;27;20463;-67
2020/12/18 12:46:48;;;;;;;7.25;4.10;;;18.50;99.90;;;;;;7034068;28;20442;-67
2020/12/18 12:50:09;;;;;;;6.53;4.37;;;19.00;99.90;;;;;;7037819;27;20970;-66
2020/12/18 12:53:30;;;;;;;6.30;4.68;;;18.00;99.90;;;;;;7038827;27;20378;-66
2020/12/18 12:56:54;;;;;;;7.68;4.40;;;16.20;99.90;;;;;;7054510;27;20403;-66
2020/12/18 13:00:15;;;;;;;7.75;4.50;;;15.60;99.90;;;;;;7026073;28;20414;-66
2020/12/18 13:03:36;;;;;;;7.30;4.50;;;15.90;99.90;;;;;;7052971;27;20415;-66
2020/12/18 13:06:58;;;;;;;6.05;4.00;;;16.90;99.90;;;;;;7042457;27;20494;-66
2020/12/18 13:10:19;;;;;;;7.03;4.30;;;16.60;99.90;;;;;;7031336;27;20430;-66
2020/12/18 13:13:40;;;;;;;7.00;4.55;;;15.80;99.90;;;;;;7038154;27;20419;-66
2020/12/18 13:17:01;;;;;;;6.40;4.30;;;16.40;99.90;;;;;;7034638;27;20421;-66
2020/12/18 13:20:22;;;;;;;5.75;4.30;;;17.00;99.90;;;;;;7044901;27;20489;-66
2020/12/18 13:23:43;;;;;;;6.30;4.30;;;17.30;99.90;;;;;;7029488;27;20390;-66
2020/12/18 13:27:04;;;;;;;6.60;4.20;;;17.10;99.90;;;;;;7035745;27;20405;-66
2020/12/18 13:30:25;;;;;;;6.07;4.10;;;17.30;99.90;;;;;;7032659;27;20496;-66
2020/12/18 13:33:48;;;;;;;6.50;3.90;;;17.60;99.90;;;;;;7048031;27;20483;-66
2020/12/18 13:37:10;;;;;;;6.72;4.30;;;16.40;99.90;;;;;;7033504;27;20399;-66
2020/12/18 13:40:31;;;;;;;5.20;4.20;;;15.60;99.90;;;;;;7056582;27;20382;-66
2020/12/18 13:43:52;;;;;;;5.65;4.35;;;14.40;99.90;;;;;;7045647;27;20818;-66
2020/12/18 13:47:16;;;;;;;6.30;4.30;;;13.80;99.90;;;;;;7044958;27;20904;-66
2020/12/18 13:50:37;;;;;;;7.93;4.10;;;13.40;99.90;;;;;;7059227;27;20467;-66
2020/12/18 13:53:58;;;;;;;8.80;4.50;;;13.00;99.90;;;;;;7036335;27;20886;-65
2020/12/18 13:57:19;;;;;;;6.67;4.20;;;12.00;99.90;;;;;;7036402;27;20943;-66
2020/12/18 14:00:40;;;;;;;6.47;4.20;;;11.60;99.90;;;;;;7051151;27;20454;-66
2020/12/18 14:04:01;;;;;;;5.82;4.20;;;11.10;99.90;;;;;;7027927;27;20464;-66
2020/12/18 14:07:22;;;;;;;7.60;4.40;;;10.70;99.90;;;;;;7043334;27;20513;-68
2020/12/18 14:10:43;;;;;;;7.88;4.90;;;10.20;99.90;;;;;;7064203;27;20482;-67
2020/12/18 14:14:04;;;;;;;7.60;4.70;;;9.90;99.90;;;;;;7034498;27;20415;-67
2020/12/18 14:17:25;;;;;;;7.28;4.30;;;9.80;99.90;;;;;;7049389;27;20410;-66
2020/12/18 14:20:46;;;;;;;7.40;4.60;;;9.70;99.90;;;;;;7050496;27;20768;-67
2020/12/18 14:24:07;;;;;;;7.45;4.53;;;9.50;99.90;;;;;;7055945;27;20413;-67
2020/12/18 14:27:28;;;;;;;6.25;4.40;;;9.30;99.90;;;;;;7048857;27;20414;-67
2020/12/18 14:30:49;;;;;;;9.53;4.83;;;9.30;99.90;;;;;;7030813;27;20425;-66
2020/12/18 14:34:11;;;;;;;6.97;4.50;;;9.10;99.90;;;;;;7035976;27;20405;-67
2020/12/18 14:37:32;;;;;;;6.85;4.50;;;9.00;99.90;;;;;;7040702;27;20443;-65
2020/12/18 14:40:52;;;;;;;8.68;4.65;;;9.00;99.90;;;;;;7024199;27;20407;-66
2020/12/18 14:44:13;;;;;;;8.40;4.45;;;8.80;99.90;;;;;;7049665;27;20406;-66
2020/12/18 14:47:34;;;;;;;7.20;4.57;;;8.80;99.90;;;;;;7026820;27;20414;-65
2020/12/18 14:50:55;;;;;;;6.17;4.50;;;8.80;99.90;;;;;;7050602;27;20410;-64
2020/12/18 14:54:16;;;;;;;7.07;4.50;;;8.60;99.90;;;;;;7026284;27;20403;-65
2020/12/18 14:57:37;;;;;;;9.90;4.85;;;8.60;99.90;;;;;;7046841;27;20970;-67
2020/12/18 15:00:58;;;;;;;7.80;4.60;;;8.50;99.90;;;;;;7045809;27;20547;-65
2020/12/18 15:04:19;;;;;;;6.93;4.50;;;8.40;99.90;;;;;;7027710;27;20466;-64
2020/12/18 15:07:39;;;;;;;8.02;4.93;;;8.40;99.90;;;;;;7029121;27;20496;-65
2020/12/18 15:11:00;;;;;;;7.90;4.90;;;8.00;99.90;;;;;;7032580;27;20405;-66
2020/12/18 15:14:21;;;;;;;6.47;4.80;;;7.90;99.90;;;;;;7055437;27;20400;-66
2020/12/18 15:17:42;;;;;;;9.38;5.18;;;8.00;99.90;;;;;;7051835;27;20736;-66
2020/12/18 15:21:03;;;;;;;7.38;5.00;;;7.90;99.90;;;;;;7033471;27;20422;-66
2020/12/18 15:24:24;;;;;;;7.28;5.32;;;7.80;99.90;;;;;;7049496;27;20394;-65
2020/12/18 15:27:45;;;;;;;7.70;4.90;;;7.90;99.90;;;;;;7046328;27;20424;-65
2020/12/18 15:31:05;;;;;;;8.40;5.20;;;7.70;99.90;;;;;;7051716;27;20409;-65
2020/12/18 15:34:26;;;;;;;7.05;5.10;;;7.70;99.90;;;;;;7035932;27;20426;-65
2020/12/18 15:37:48;;;;;;;8.02;5.40;;;7.70;99.90;;;;;;7040123;27;20389;-65
2020/12/18 15:41:08;;;;;;;9.68;5.65;;;7.60;99.90;;;;;;7048362;27;20421;-65
2020/12/18 15:44:29;;;;;;;8.80;5.30;;;7.60;99.90;;;;;;7034109;27;20489;-65
2020/12/18 15:47:50;;;;;;;9.15;5.70;;;7.50;99.90;;;;;;7043138;27;20409;-65
2020/12/18 15:51:16;;;;;;;7.40;5.50;;;7.40;99.90;;;;;;7052403;27;20390;-68
2020/12/18 15:54:37;;;;;;;8.32;5.50;;;7.50;99.90;;;;;;7015843;27;20992;-66
2020/12/18 15:57:58;;;;;;;9.10;5.72;;;7.40;99.90;;;;;;7031915;27;20430;-67
2020/12/18 16:01:18;;;;;;;8.27;5.90;;;7.40;99.90;;;;;;7037291;27;20506;-67
2020/12/18 16:04:39;;;;;;;9.37;6.00;;;7.20;99.90;;;;;;7025592;27;20538;-66
2020/12/18 16:08:00;;;;;;;8.73;5.82;;;7.20;99.90;;;;;;7025008;27;20438;-66
2020/12/18 16:11:22;;;;;;;9.38;5.70;;;7.20;99.90;;;;;;7023106;27;21454;-66
2020/12/18 16:14:43;;;;;;;9.10;6.10;;;7.00;99.90;;;;;;7021163;27;20392;-66
2020/12/18 16:18:04;;;;;;;8.70;5.90;;;7.00;99.90;;;;;;7025011;27;20726;-67
2020/12/18 16:21:25;;;;;;;9.90;6.23;;;7.00;99.90;;;;;;7020696;27;20395;-67
2020/12/18 16:24:46;;;;;;;10.15;5.93;;;7.00;99.90;;;;;;7060810;27;20437;-67
2020/12/18 16:28:06;;;;;;;10.00;6.03;;;6.90;99.90;;;;;;7046341;27;20414;-68
2020/12/18 16:31:27;;;;;;;10.00;6.50;;;6.90;99.90;;;;;;7030108;27;20391;-67
2020/12/18 16:34:48;;;;;;;10.83;6.20;;;6.90;99.90;;;;;;7044103;27;20407;-67
2020/12/18 16:38:09;;;;;;;9.30;6.30;;;6.90;99.90;;;;;;7047286;27;20480;-67
2020/12/18 16:41:32;;;;;;;10.57;6.50;;;6.90;99.90;;;;;;7052605;27;20394;-66
2020/12/18 16:44:52;;;;;;;10.80;6.67;;;6.80;99.90;;;;;;7050934;27;20433;-66
2020/12/18 16:48:13;;;;;;;8.85;6.55;;;6.70;99.90;;;;;;7032379;27;20414;-65
2020/12/18 16:51:34;;;;;;;12.95;7.57;;;6.60;99.90;;;;;;7030162;27;20487;-66
2020/12/18 16:54:55;;;;;;;9.13;6.70;;;6.60;99.90;;;;;;7029480;27;20395;-65
2020/12/18 16:58:16;;;;;;;8.90;6.40;;;6.60;99.90;;;;;;7024476;28;20419;-65
2020/12/18 17:01:40;;;;;;;10.20;7.00;;;6.70;99.90;;;;;;7044119;27;20481;-66
2020/12/18 17:05:01;;;;;;;10.93;7.10;;;6.60;99.90;;;;;;7022515;27;20414;-66
2020/12/18 17:08:22;;;;;;;12.57;7.70;;;6.60;99.90;;;;;;7050299;27;20414;-66
2020/12/18 17:11:43;;;;;;;10.68;6.40;;;6.70;99.90;;;;;;7053014;27;20430;-67
2020/12/18 17:15:05;;;;;;;10.90;7.70;;;6.60;99.90;;;;;;7052811;27;20388;-68
2020/12/18 17:18:26;;;;;;;9.87;7.27;;;6.50;99.90;;;;;;7019223;27;20410;-66
2020/12/18 17:21:47;;;;;;;10.90;7.30;;;6.60;99.90;;;;;;7035224;27;20422;-66
2020/12/18 17:25:08;;;;;;;10.70;7.10;;;6.60;99.90;;;;;;7024631;27;20411;-66
2020/12/18 17:28:29;;;;;;;12.55;7.90;;;6.50;99.90;;;;;;7024596;27;20450;-66
2020/12/18 17:31:50;;;;;;;10.50;7.25;;;6.50;99.90;;;;;;7025227;28;20414;-65
2020/12/18 17:35:11;;;;;;;10.73;7.10;;;6.50;99.90;;;;;;7017380;27;20888;-66
2020/12/18 17:38:32;;;;;;;11.40;7.63;;;6.40;99.90;;;;;;7024090;27;20408;-64
2020/12/18 17:41:53;;;;;;;11.30;7.97;;;6.40;99.90;;;;;;7016277;27;20413;-64
2020/12/18 17:45:15;;;;;;;12.82;8.23;;;6.40;99.90;;;;;;7043246;27;20383;-65